KDVT/DVT METAR and TAF weather

Enter ICAO airport designator
Station Type Date Time Source
KDVT METAR 2019/10/21 04:53 UTC NOAA

KDVT 210453Z AUTO 02008KT 10SM CLR 19/M05 A2990 RMK AO2 SLP107 T01941050


Station Type Date Time Source
KDVT Decoded METAR 2019/10/21 04:53 UTC NOAA

PHOENIX-DEER VALLEY MUN, AZ, United States (KDVT) 33-41N 112-04W 443M
Oct 21, 2019 - 12:53 AM EDT / 2019.10.21 0453 UTC
Wind: from the NNE (020 degrees) at 9 MPH (8 KT):0
Visibility: 10 mile(s):0
Sky conditions: clear
Temperature: 66.9 F (19.4 C)
Dew Point: 23.0 F (-5.0 C)
Relative Humidity: 18%
Pressure (altimeter): 29.9 in. Hg (1012 hPa)
ob: KDVT 210453Z AUTO 02008KT 10SM CLR 19/M05 A2990 RMK AO2 SLP107 T01941050
cycle: 5

Station Type Date Time Source
KDVT TAF 2019/10/20 18:39 UTC NOAA

TAF KDVT 201736Z 2018/2118 VRB03KT P6SM SKC
FM201900 26008KT P6SM SKC
FM210300 03009KT P6SM SKC

Example: see airport list